Terminal Aerodrome Forecast
Issued by NWS

Home | Current Version | Previous Version | Text Only | Print | Product List | Glossary On
Versions: 1 2 3 4 5 6 7 8 9 10 11 12 13 14 15 16 17 18 19 20 21 22 23 24 25 26 27 28 29 30 31 32 33 34 35 36 37 38 39 40 41 42 43 44 45 46 47 48 49
000
FTUS45 KBOU 271728
TAFBJC
TAF
KBJC 271728Z 2718/2818 VRB05KT P6SM FEW120
     FM272200 23008KT P6SM FEW120
     FM280900 26012KT P6SM SCT140 BKN180
      TEMPO 2809/2812 26012G22KT
     FM281600 27008KT P6SM SCT140 BKN180=

USA.gov is the U.S. government's official web portal to all federal, state and local government web resources and services.